SBBE/BEL METAR and TAF weather

Enter ICAO airport designator
Station Type Date Time Source
SBBE METAR 2020/01/24 09:00 UTC NOAA

SBBE 240900Z 10003KT CAVOK 24/24 Q1009


Station Type Date Time Source
SBBE Decoded METAR 2020/01/24 09:00 UTC NOAA

Belem Aeroporto , Brazil (SBBE) 01-23S 048-29W 16M
Jan 24, 2020 - 04:00 AM EST / 2020.01.24 0900 UTC
Wind: from the E (100 degrees) at 3 MPH (3 KT):0
Visibility: greater than 7 mile(s):0
Temperature: 75 F (24 C)
Dew Point: 75 F (24 C)
Relative Humidity: 100%
Pressure (altimeter): 29.80 in. Hg (1009 hPa)
ob: SBBE 240900Z 10003KT CAVOK 24/24 Q1009
cycle: 9

Station Type Date Time Source
SBBE TAF 2020/01/24 12:32 UTC NOAA

TAF SBBE 240930Z 2412/2512 06005KT 9999 SCT017 TX30/2417Z TN25/2510Z
BECMG 2414/2416 02010KT 8000 BKN020 FEW025TCU PROB40 2417/2420 7000 TSRA BKN020 FEW025CB
BECMG 2421/2423 05005KT SCT017
RMK PHC

Example: see airport list